createdAt,value
2022-08-21T00:00:44.215Z,47.70
2022-08-21T00:03:14.896Z,47.73
2022-08-21T00:05:51.227Z,48.14
2022-08-21T00:08:22.853Z,48.21
2022-08-21T00:10:52.049Z,48.00
2022-08-21T00:13:21.452Z,47.78
2022-08-21T00:15:50.672Z,48.49
2022-08-21T00:18:19.170Z,49.49
2022-08-21T00:20:49.998Z,49.58
2022-08-21T00:23:18.587Z,50.24
2022-08-21T00:25:46.827Z,50.01
2022-08-21T00:28:15.939Z,51.37
2022-08-21T00:30:44.825Z,50.92
2022-08-21T00:33:14.226Z,50.90
2022-08-21T00:35:44.627Z,50.97
2022-08-21T00:38:14.447Z,51.08
2022-08-21T00:40:50.216Z,51.42
2022-08-21T00:43:22.131Z,50.12
2022-08-21T00:45:50.917Z,50.70
2022-08-21T00:48:19.273Z,50.83
2022-08-21T00:50:52.878Z,50.87
2022-08-21T00:53:22.383Z,50.67
2022-08-21T00:55:51.386Z,50.82
2022-08-21T00:58:20.730Z,50.53
2022-08-21T01:00:51.368Z,50.57
2022-08-21T01:03:23.765Z,50.88
2022-08-21T01:05:52.668Z,50.41
2022-08-21T01:08:24.217Z,50.18
2022-08-21T01:10:55.239Z,49.68
2022-08-21T01:13:28.587Z,50.14
2022-08-21T01:16:00.318Z,50.52
2022-08-21T01:18:29.756Z,50.39
2022-08-21T01:21:09.779Z,50.76
2022-08-21T01:23:46.687Z,50.13
2022-08-21T01:26:17.609Z,50.54
2022-08-21T01:28:52.916Z,51.04
2022-08-21T01:31:27.337Z,50.78
2022-08-21T01:33:59.258Z,50.91
2022-08-21T01:36:30.952Z,50.75
2022-08-21T01:39:02.050Z,51.72
2022-08-21T01:41:33.357Z,51.88
2022-08-21T01:44:06.430Z,51.75
2022-08-21T01:46:35.385Z,51.13
2022-08-21T01:49:06.159Z,50.86
2022-08-21T01:51:36.163Z,51.71
2022-08-21T01:54:04.312Z,52.07
2022-08-21T01:56:39.653Z,51.89
2022-08-21T01:59:09.086Z,52.04
2022-08-21T02:01:38.224Z,51.42
2022-08-21T02:04:07.260Z,52.11
2022-08-21T02:06:38.481Z,52.00
2022-08-21T02:09:08.674Z,52.43
2022-08-21T02:11:37.774Z,52.47
2022-08-21T02:14:09.665Z,53.12
2022-08-21T02:16:38.299Z,52.94
2022-08-21T02:19:06.930Z,53.06
2022-08-21T02:21:34.969Z,52.97
2022-08-21T02:24:07.844Z,53.81
2022-08-21T02:26:38.111Z,52.66
2022-08-21T02:29:07.118Z,52.69
2022-08-21T02:31:36.865Z,52.51
2022-08-21T02:34:05.526Z,54.03
2022-08-21T02:36:35.303Z,53.76
2022-08-21T02:39:08.404Z,54.14
2022-08-21T02:41:40.006Z,54.21
2022-08-21T02:44:11.336Z,54.05
2022-08-21T02:46:42.722Z,53.60
2022-08-21T02:49:14.955Z,54.01
2022-08-21T02:51:44.688Z,53.74
2022-08-21T02:54:15.500Z,54.02
2022-08-21T02:56:45.487Z,53.99
2022-08-21T02:59:15.525Z,53.51
2022-08-21T03:01:45.232Z,54.12
2022-08-21T03:04:16.314Z,54.37
2022-08-21T03:06:47.600Z,54.70
2022-08-21T03:09:18.055Z,54.71
2022-08-21T03:11:47.888Z,54.88
2022-08-21T03:14:16.994Z,55.35
2022-08-21T03:16:48.317Z,55.81
2022-08-21T03:19:19.050Z,55.61
2022-08-21T03:21:47.670Z,56.37
2022-08-21T03:24:17.395Z,56.30
2022-08-21T03:26:48.744Z,56.02
2022-08-21T03:29:17.075Z,55.72
2022-08-21T03:31:45.628Z,55.75
2022-08-21T03:34:13.715Z,55.95
2022-08-21T03:36:41.692Z,56.25
2022-08-21T03:39:09.898Z,56.10
2022-08-21T03:41:39.269Z,55.73
2022-08-21T03:44:07.290Z,56.16
2022-08-21T03:46:35.903Z,56.12
2022-08-21T03:49:04.473Z,55.77
2022-08-21T03:51:34.715Z,55.82
2022-08-21T03:54:03.422Z,55.64
2022-08-21T03:56:32.009Z,55.77
2022-08-21T03:59:03.534Z,55.76
2022-08-21T04:01:32.015Z,56.07
2022-08-21T04:04:00.774Z,56.08
2022-08-21T04:06:28.845Z,56.14
2022-08-21T04:08:56.896Z,55.70
2022-08-21T04:11:25.010Z,55.76
2022-08-21T04:13:53.239Z,55.92
2022-08-21T04:16:22.588Z,56.32
2022-08-21T04:18:53.392Z,56.55
2022-08-21T04:21:24.581Z,56.96
2022-08-21T04:23:56.583Z,57.31
2022-08-21T04:26:26.885Z,57.16
2022-08-21T04:28:59.441Z,57.06
2022-08-21T04:31:30.152Z,57.45
2022-08-21T04:34:01.414Z,57.52
2022-08-21T04:36:32.000Z,57.88
2022-08-21T04:39:03.610Z,57.56
2022-08-21T04:41:33.866Z,57.69
2022-08-21T04:44:02.847Z,57.07
2022-08-21T04:46:33.880Z,57.73
2022-08-21T04:49:03.708Z,57.01
2022-08-21T04:51:36.853Z,56.94
2022-08-21T04:54:11.502Z,57.40
2022-08-21T04:56:44.569Z,58.02
2022-08-21T04:59:17.798Z,57.94
2022-08-21T05:01:50.424Z,58.38
2022-08-21T05:04:26.272Z,58.74
2022-08-21T05:07:02.135Z,58.58
2022-08-21T05:09:34.931Z,58.46
2022-08-21T05:12:05.298Z,57.83
2022-08-21T05:14:34.237Z,58.22
2022-08-21T05:17:03.968Z,58.37
2022-08-21T05:19:32.442Z,58.67
2022-08-21T05:22:00.684Z,58.91
2022-08-21T05:24:29.124Z,58.88
2022-08-21T05:26:57.303Z,59.87
2022-08-21T05:29:25.534Z,59.46
2022-08-21T05:31:53.705Z,59.13
2022-08-21T05:34:24.783Z,58.85
2022-08-21T05:36:53.023Z,59.43
2022-08-21T05:39:20.975Z,59.76
2022-08-21T05:41:50.318Z,60.13
2022-08-21T05:44:18.839Z,60.60
2022-08-21T05:46:48.657Z,61.29
2022-08-21T05:49:16.665Z,61.23
2022-08-21T05:51:46.130Z,60.89
2022-08-21T05:54:14.415Z,61.42
2022-08-21T05:56:45.647Z,61.35
2022-08-21T05:59:14.335Z,62.64
2022-08-21T06:01:43.061Z,62.49
2022-08-21T06:04:11.698Z,62.66
2022-08-21T06:06:40.216Z,61.84
2022-08-21T06:09:09.655Z,62.23
2022-08-21T06:11:38.021Z,62.03
2022-08-21T06:14:07.413Z,62.31
2022-08-21T06:16:35.485Z,61.84
2022-08-21T06:19:03.862Z,62.37
2022-08-21T06:21:33.884Z,63.00
2022-08-21T06:24:02.427Z,63.28
2022-08-21T06:26:33.191Z,63.27
2022-08-21T06:29:03.053Z,62.98
2022-08-21T06:31:32.264Z,62.81
2022-08-21T06:34:02.354Z,62.67
2022-08-21T06:36:32.249Z,63.84
2022-08-21T06:39:02.289Z,63.82
2022-08-21T06:41:47.199Z,63.80
2022-08-21T06:44:19.055Z,63.47
2022-08-21T06:46:48.444Z,63.97
2022-08-21T06:49:21.637Z,63.61
2022-08-21T06:51:50.924Z,64.08
2022-08-21T06:54:20.076Z,63.89
2022-08-21T06:56:49.971Z,63.51
2022-08-21T06:59:18.028Z,63.74
2022-08-21T07:01:47.469Z,63.44
2022-08-21T07:04:16.104Z,62.95
2022-08-21T07:06:44.179Z,62.38
2022-08-21T07:09:14.942Z,62.90
2022-08-21T07:11:47.730Z,62.61
2022-08-21T07:14:20.452Z,62.04
2022-08-21T07:16:52.652Z,61.82
2022-08-21T07:19:21.426Z,61.45
2022-08-21T07:21:49.792Z,61.15
2022-08-21T07:24:17.896Z,59.89
2022-08-21T07:26:45.871Z,59.53
2022-08-21T07:29:13.883Z,58.94
2022-08-21T07:31:43.554Z,58.59
2022-08-21T07:34:11.622Z,57.81
2022-08-21T07:36:39.735Z,57.18
2022-08-21T07:39:08.875Z,56.77
2022-08-21T07:41:38.738Z,56.82
2022-08-21T07:44:06.800Z,57.32
2022-08-21T07:46:35.021Z,57.04
2022-08-21T07:49:05.726Z,56.79
2022-08-21T07:51:34.649Z,55.80
2022-08-21T07:54:03.748Z,55.12
2022-08-21T07:56:34.168Z,55.89
2022-08-21T07:59:05.481Z,55.68
2022-08-21T08:01:37.218Z,55.86
2022-08-21T08:06:38.414Z,55.92
2022-08-21T08:09:09.125Z,56.16
2022-08-21T08:11:41.522Z,56.62
2022-08-21T08:14:10.670Z,55.71
2022-08-21T08:16:38.889Z,55.54
2022-08-21T08:19:10.131Z,55.96
2022-08-21T08:21:39.689Z,56.06
2022-08-21T08:24:19.184Z,56.52
2022-08-21T08:26:53.790Z,56.86
2022-08-21T08:29:24.675Z,56.69
2022-08-21T08:31:54.855Z,57.16
2022-08-21T08:34:25.673Z,57.04
2022-08-21T08:36:59.506Z,56.75
2022-08-21T08:39:35.040Z,56.32
2022-08-21T08:42:32.200Z,57.22
2022-08-21T08:45:07.226Z,56.81
2022-08-21T08:47:40.381Z,57.20
2022-08-21T08:50:18.775Z,57.50
2022-08-21T08:52:59.097Z,57.87
2022-08-21T08:55:34.884Z,57.85
2022-08-21T08:58:05.292Z,57.32
2022-08-21T09:00:35.815Z,58.06
2022-08-21T09:03:06.201Z,57.96
2022-08-21T09:05:44.067Z,57.68
2022-08-21T09:08:50.456Z,57.08
2022-08-21T09:11:31.007Z,57.32
2022-08-21T09:14:13.481Z,57.53
2022-08-21T09:16:53.891Z,57.71
2022-08-21T09:19:38.539Z,56.35
2022-08-21T09:22:17.524Z,56.43
2022-08-21T09:24:54.602Z,56.13
2022-08-21T09:27:24.378Z,56.69
2022-08-21T09:29:55.951Z,57.04
2022-08-21T09:32:37.439Z,56.85
2022-08-21T09:35:09.841Z,55.98
2022-08-21T09:37:53.754Z,56.13
2022-08-21T09:40:40.811Z,55.45
2022-08-21T09:43:19.534Z,56.16
2022-08-21T09:45:49.593Z,55.33
2022-08-21T09:48:21.406Z,54.92
2022-08-21T09:50:54.401Z,54.97
2022-08-21T09:53:26.612Z,54.02
2022-08-21T09:56:14.490Z,53.69
2022-08-21T09:58:45.618Z,55.06
2022-08-21T10:01:17.987Z,54.68
2022-08-21T10:03:47.258Z,54.22
2022-08-21T10:06:24.905Z,53.33
2022-08-21T10:09:06.638Z,52.94
2022-08-21T10:11:35.448Z,53.39
2022-08-21T10:14:13.905Z,53.68
2022-08-21T10:16:55.029Z,52.88
2022-08-21T10:19:33.096Z,52.11
2022-08-21T10:22:09.839Z,52.42
2022-08-21T10:24:49.891Z,54.74
2022-08-21T10:27:29.071Z,51.66
2022-08-21T10:30:01.849Z,50.10
2022-08-21T10:32:42.710Z,49.43
2022-08-21T10:35:15.268Z,49.73
2022-08-21T10:38:05.799Z,50.82
2022-08-21T10:40:42.869Z,51.06
2022-08-21T10:43:26.722Z,51.27
2022-08-21T10:46:05.235Z,51.97
2022-08-21T10:48:39.065Z,50.79
2022-08-21T10:51:14.872Z,51.00
2022-08-21T10:54:05.617Z,51.29
2022-08-21T10:56:40.493Z,52.47
2022-08-21T10:59:29.155Z,53.09
2022-08-21T11:02:02.959Z,52.66
2022-08-21T11:04:49.954Z,53.55
2022-08-21T11:07:31.743Z,54.34
2022-08-21T11:10:09.320Z,54.25
2022-08-21T11:12:44.727Z,54.28
2022-08-21T11:15:29.649Z,54.67
2022-08-21T11:18:11.750Z,54.64
2022-08-21T11:20:45.736Z,54.86
2022-08-21T11:23:22.721Z,55.71
2022-08-21T11:25:57.493Z,52.50
2022-08-21T11:28:35.276Z,50.80
2022-08-21T11:31:17.064Z,49.40
2022-08-21T11:34:00.370Z,50.13
2022-08-21T11:36:38.933Z,49.77
2022-08-21T11:39:18.803Z,49.56
2022-08-21T11:41:55.414Z,49.62
2022-08-21T11:44:40.138Z,49.45
2022-08-21T11:47:18.270Z,49.76
2022-08-21T11:49:59.303Z,50.40
2022-08-21T11:52:35.588Z,50.67
2022-08-21T11:55:10.847Z,50.56
2022-08-21T11:57:49.385Z,50.24
2022-08-21T12:00:26.806Z,50.22
2022-08-21T12:03:01.555Z,50.00
2022-08-21T12:05:37.053Z,51.25
2022-08-21T12:08:13.553Z,50.75
2022-08-21T12:10:45.259Z,50.46
2022-08-21T12:13:39.784Z,47.17
2022-08-21T12:16:15.559Z,46.31
2022-08-21T12:18:46.252Z,47.55
2022-08-21T12:21:28.916Z,45.33
2022-08-21T12:24:18.601Z,44.65
2022-08-21T12:26:55.989Z,44.98
2022-08-21T12:29:27.956Z,44.43
2022-08-21T12:32:01.973Z,45.16
2022-08-21T12:34:37.235Z,45.09
2022-08-21T12:37:18.646Z,43.25
2022-08-21T12:39:53.218Z,44.38
2022-08-21T12:42:28.915Z,44.59
2022-08-21T12:45:06.117Z,44.03
2022-08-21T12:47:49.965Z,43.26
2022-08-21T12:50:22.592Z,44.54
2022-08-21T12:53:01.352Z,43.81
2022-08-21T12:55:34.612Z,43.88
2022-08-21T12:58:03.483Z,43.84
2022-08-21T13:00:32.412Z,43.68
2022-08-21T13:03:05.112Z,42.94
2022-08-21T13:05:37.395Z,42.98
2022-08-21T13:08:09.004Z,43.40
2022-08-21T13:10:39.813Z,43.14
2022-08-21T13:13:25.708Z,42.75
2022-08-21T13:16:03.242Z,41.18
2022-08-21T13:18:37.290Z,41.09
2022-08-21T13:21:08.723Z,41.54
2022-08-21T13:23:37.234Z,42.25
2022-08-21T13:26:18.564Z,42.61
2022-08-21T13:28:49.186Z,43.23
2022-08-21T13:31:22.670Z,42.46
2022-08-21T13:33:53.176Z,42.27
2022-08-21T13:36:27.219Z,42.06
2022-08-21T13:38:57.549Z,42.25
2022-08-21T13:41:30.819Z,41.74
2022-08-21T13:44:05.767Z,43.21
2022-08-21T13:46:39.190Z,43.41
2022-08-21T13:49:13.180Z,43.08
2022-08-21T13:51:45.510Z,42.48
2022-08-21T13:54:29.577Z,42.41
2022-08-21T13:56:58.978Z,42.76
2022-08-21T13:59:37.558Z,43.17
2022-08-21T14:02:16.849Z,42.45
2022-08-21T14:04:56.774Z,41.64
2022-08-21T14:07:33.885Z,42.08
2022-08-21T14:10:07.554Z,42.57
2022-08-21T14:12:43.495Z,42.62
2022-08-21T14:15:16.483Z,42.98
2022-08-21T14:17:47.995Z,43.25
2022-08-21T14:20:32.906Z,42.92
2022-08-21T14:23:03.511Z,42.22
2022-08-21T14:25:40.830Z,42.77
2022-08-21T14:28:23.428Z,42.70
2022-08-21T14:30:59.176Z,43.18
2022-08-21T14:33:35.973Z,42.79
2022-08-21T14:36:09.008Z,43.35
2022-08-21T14:38:42.574Z,42.78
2022-08-21T14:41:19.635Z,41.93
2022-08-21T14:44:04.035Z,41.71
2022-08-21T14:46:55.667Z,42.24
2022-08-21T14:49:28.999Z,41.80
2022-08-21T14:51:59.983Z,41.67
2022-08-21T14:54:31.241Z,41.55
2022-08-21T14:57:03.643Z,41.21
2022-08-21T14:59:33.958Z,41.69
2022-08-21T15:02:05.643Z,41.12
2022-08-21T15:04:35.032Z,41.51
2022-08-21T15:07:05.997Z,40.81
2022-08-21T15:09:36.645Z,39.76
2022-08-21T15:12:08.518Z,39.45
2022-08-21T15:14:42.682Z,38.36
2022-08-21T15:17:13.502Z,38.42
2022-08-21T15:19:42.589Z,38.40
2022-08-21T15:22:18.683Z,39.27
2022-08-21T15:24:50.493Z,40.19
2022-08-21T15:27:20.861Z,40.30
2022-08-21T15:29:51.568Z,40.03
2022-08-21T15:32:25.340Z,39.91
2022-08-21T15:34:56.196Z,41.06
2022-08-21T15:37:27.963Z,40.96
2022-08-21T15:39:58.101Z,41.75
2022-08-21T15:42:29.625Z,41.94
2022-08-21T15:45:00.299Z,42.61
2022-08-21T15:47:34.889Z,42.86
2022-08-21T15:50:08.929Z,42.94
2022-08-21T15:52:42.025Z,43.33
2022-08-21T15:55:12.108Z,43.50
2022-08-21T15:57:57.449Z,43.08
2022-08-21T16:00:29.231Z,43.49
2022-08-21T16:03:02.291Z,43.36
2022-08-21T16:05:31.693Z,43.33
2022-08-21T16:08:03.249Z,43.53
2022-08-21T16:10:32.372Z,43.47
2022-08-21T16:13:06.908Z,43.64
2022-08-21T16:15:36.434Z,43.52
2022-08-21T16:18:08.441Z,43.51
2022-08-21T16:20:39.419Z,43.63
2022-08-21T16:23:11.370Z,43.93
2022-08-21T16:25:43.445Z,43.60
2022-08-21T16:28:16.142Z,43.61
2022-08-21T16:30:48.981Z,43.38
2022-08-21T16:33:28.150Z,43.48
2022-08-21T16:35:56.658Z,44.24
2022-08-21T16:38:29.612Z,43.86
2022-08-21T16:40:58.290Z,43.47
2022-08-21T16:43:30.868Z,43.82
2022-08-21T16:46:00.557Z,43.95
2022-08-21T16:48:31.619Z,44.35
2022-08-21T16:51:02.949Z,44.56
2022-08-21T16:53:36.360Z,42.96
2022-08-21T16:56:08.066Z,43.09
2022-08-21T16:58:44.456Z,43.18
2022-08-21T17:01:18.179Z,43.24
2022-08-21T17:03:51.791Z,43.31
2022-08-21T17:06:22.612Z,43.42
2022-08-21T17:09:01.245Z,43.57
2022-08-21T17:11:37.901Z,43.00
2022-08-21T17:14:12.886Z,43.10
2022-08-21T17:16:43.451Z,43.44
2022-08-21T17:19:13.440Z,43.11
2022-08-21T17:21:42.168Z,43.44
2022-08-21T17:24:12.953Z,42.86
2022-08-21T17:26:41.473Z,42.51
2022-08-21T17:29:12.545Z,42.15
2022-08-21T17:31:42.509Z,42.56
2022-08-21T17:34:11.563Z,42.43
2022-08-21T17:36:39.762Z,42.35
2022-08-21T17:39:08.064Z,42.32
2022-08-21T17:41:37.706Z,41.91
2022-08-21T17:44:09.487Z,41.81
2022-08-21T17:46:38.945Z,41.61
2022-08-21T17:49:09.897Z,40.94
2022-08-21T17:51:38.056Z,40.48
2022-08-21T17:54:06.578Z,40.20
2022-08-21T17:56:38.923Z,40.69
2022-08-21T17:59:08.159Z,39.59
2022-08-21T18:01:40.018Z,39.50
2022-08-21T18:04:08.071Z,39.60
2022-08-21T18:06:36.470Z,40.06
2022-08-21T18:09:06.121Z,40.31
2022-08-21T18:11:35.824Z,40.61
2022-08-21T18:14:07.855Z,40.72
2022-08-21T18:16:37.953Z,41.51
2022-08-21T18:19:09.814Z,42.04
2022-08-21T18:21:38.022Z,43.29
2022-08-21T18:24:07.530Z,44.27
2022-08-21T18:26:38.533Z,45.88
2022-08-21T18:29:12.597Z,46.30
2022-08-21T18:31:43.612Z,46.54
2022-08-21T18:34:22.608Z,47.05
2022-08-21T18:36:54.938Z,47.64
2022-08-21T18:39:36.801Z,47.53
2022-08-21T18:42:11.571Z,47.74
2022-08-21T18:44:46.261Z,48.09
2022-08-21T18:47:22.080Z,48.00
2022-08-21T18:49:51.617Z,48.02
2022-08-21T18:52:20.844Z,48.26
2022-08-21T18:54:50.581Z,48.55
2022-08-21T18:57:21.314Z,48.78
2022-08-21T18:59:52.667Z,48.79
2022-08-21T19:02:21.547Z,48.66
2022-08-21T19:04:52.154Z,48.77
2022-08-21T19:07:23.750Z,48.44
2022-08-21T19:10:24.575Z,48.67
2022-08-21T19:12:45.544Z,48.71
2022-08-21T19:15:19.911Z,48.50
2022-08-21T19:17:50.802Z,48.76
2022-08-21T19:20:26.538Z,49.10
2022-08-21T19:22:57.207Z,48.84
2022-08-21T19:25:33.638Z,48.79
2022-08-21T19:28:11.210Z,49.03
2022-08-21T19:33:37.948Z,49.36
2022-08-21T19:36:11.871Z,49.11
2022-08-21T19:38:42.434Z,49.08
2022-08-21T19:41:16.337Z,49.58
2022-08-21T19:43:50.326Z,49.57
2022-08-21T19:46:29.579Z,49.56
2022-08-21T19:49:00.677Z,49.68
2022-08-21T19:51:31.936Z,49.63
2022-08-21T19:54:02.927Z,49.57
2022-08-21T19:56:36.531Z,49.73
2022-08-21T19:59:09.337Z,49.57
2022-08-21T20:01:41.592Z,49.53
2022-08-21T20:04:19.251Z,49.70
2022-08-21T20:06:51.955Z,49.63
2022-08-21T20:09:24.927Z,50.02
2022-08-21T20:11:56.060Z,49.96
2022-08-21T20:14:30.804Z,50.41
2022-08-21T20:17:10.557Z,50.61
2022-08-21T20:19:41.104Z,50.37
2022-08-21T20:22:09.883Z,50.61
2022-08-21T20:24:37.913Z,50.46
2022-08-21T20:27:06.516Z,50.82
2022-08-21T20:29:39.162Z,50.78
2022-08-21T20:34:59.315Z,50.96
2022-08-21T20:37:36.187Z,50.74
2022-08-21T20:40:10.814Z,50.99
2022-08-21T20:42:40.356Z,51.06
2022-08-21T20:45:10.208Z,51.12
2022-08-21T20:47:40.311Z,51.32
2022-08-21T20:50:14.289Z,51.06
2022-08-21T20:52:43.013Z,51.25
2022-08-21T20:55:14.904Z,51.29
2022-08-21T20:57:50.890Z,51.28
2022-08-21T21:00:22.378Z,51.60
2022-08-21T21:03:00.949Z,52.00
2022-08-21T21:05:37.578Z,51.76
2022-08-21T21:08:17.958Z,51.57
2022-08-21T21:10:53.384Z,51.60
2022-08-21T21:13:31.702Z,51.66
2022-08-21T21:16:05.004Z,51.64
2022-08-21T21:18:37.778Z,51.39
2022-08-21T21:21:33.368Z,51.90
2022-08-21T21:24:08.375Z,52.11
2022-08-21T21:26:46.125Z,52.61
2022-08-21T21:29:22.529Z,52.17
2022-08-21T21:31:54.818Z,52.29
2022-08-21T21:34:28.104Z,52.46
2022-08-21T21:37:03.650Z,52.62
2022-08-21T21:39:38.584Z,52.44
2022-08-21T21:42:17.496Z,52.34
2022-08-21T21:45:14.416Z,52.06
2022-08-21T21:48:00.337Z,52.32
2022-08-21T21:50:46.375Z,52.79
2022-08-21T21:53:33.682Z,52.80
2022-08-21T21:56:16.775Z,52.43
2022-08-21T21:59:23.156Z,52.63
2022-08-21T22:01:59.902Z,52.66
2022-08-21T22:04:51.110Z,52.86
2022-08-21T22:07:32.200Z,52.41
2022-08-21T22:10:19.888Z,52.66
2022-08-21T22:13:10.569Z,52.79
2022-08-21T22:15:41.324Z,52.88
2022-08-21T22:18:12.428Z,52.61
2022-08-21T22:20:47.116Z,52.96
2022-08-21T22:23:18.824Z,53.60
2022-08-21T22:25:51.438Z,53.18
2022-08-21T22:28:25.797Z,53.41
2022-08-21T22:30:57.219Z,53.07
2022-08-21T22:33:27.958Z,53.01
2022-08-21T22:35:58.893Z,53.77
2022-08-21T22:38:36.940Z,53.42
2022-08-21T22:41:21.554Z,53.24
2022-08-21T22:43:55.883Z,52.93
2022-08-21T22:46:32.721Z,53.74
2022-08-21T22:49:09.162Z,52.82
2022-08-21T22:51:40.701Z,53.08
2022-08-21T22:54:21.849Z,53.58
2022-08-21T22:57:01.441Z,53.06
2022-08-21T22:59:34.878Z,53.39
2022-08-21T23:02:07.780Z,53.72
2022-08-21T23:04:48.475Z,53.04
2022-08-21T23:07:34.057Z,53.73
2022-08-21T23:10:08.800Z,54.05
2022-08-21T23:12:43.704Z,53.92
2022-08-21T23:15:18.159Z,53.76
2022-08-21T23:17:53.788Z,53.82
2022-08-21T23:20:29.517Z,54.07
2022-08-21T23:23:11.028Z,53.65
2022-08-21T23:25:52.849Z,54.03
2022-08-21T23:28:37.905Z,53.58
2022-08-21T23:31:28.407Z,54.20
2022-08-21T23:34:05.867Z,54.19
2022-08-21T23:36:59.776Z,54.21
2022-08-21T23:39:51.663Z,54.66
2022-08-21T23:42:37.889Z,54.72
2022-08-21T23:45:17.815Z,54.79
2022-08-21T23:47:56.120Z,54.93
2022-08-21T23:50:30.838Z,55.10
2022-08-21T23:53:13.136Z,55.09
2022-08-21T23:55:55.118Z,55.08
2022-08-21T23:58:39.841Z,55.23
